Time;durP1;ratioP1;P1;durP2;ratioP2;P2;SDS_P1;SDS_P2;PMS_P1;PMS_P2;Temp;Humidity;BMP_temperature;BMP_pressure;BME280_temperature;BME280_humidity;BME280_pressure;Samples;Min_cycle;Max_cycle;Signal;HPM_P1;HPM_P2
2022/03/29 00:01:09;;;;;;;;;;;14.20;51.10;;;;;;5048119;28;20531;-76
2022/03/29 00:03:35;;;;;;;;;;;14.10;51.20;;;;;;5051468;28;19929;-76
2022/03/29 00:06:03;;;;;;;;;;;14.10;51.30;;;;;;5045765;28;20412;-75
2022/03/29 00:08:30;;;;;;;;;;;14.10;51.30;;;;;;5048551;28;19930;-76
2022/03/29 00:10:57;;;;;;;;;;;14.10;51.40;;;;;;5049082;28;20270;-75
2022/03/29 00:13:23;;;;;;;;;;;14.00;51.40;;;;;;5046432;28;19925;-75
2022/03/29 00:15:50;;;;;;;;;;;14.00;51.40;;;;;;5048326;28;19936;-75
2022/03/29 00:18:16;;;;;;;;;;;13.90;51.40;;;;;;5051390;28;19932;-75
2022/03/29 00:20:43;;;;;;;;;;;13.90;51.70;;;;;;5049455;28;20397;-75
2022/03/29 00:23:11;;;;;;;;;;;13.80;51.80;;;;;;5048192;28;19933;-75
2022/03/29 00:25:38;;;;;;;;;;;13.80;51.80;;;;;;5050308;28;19951;-75
2022/03/29 00:28:04;;;;;;;;;;;13.80;51.80;;;;;;5042565;28;19950;-75
2022/03/29 00:30:31;;;;;;;;;;;13.70;51.80;;;;;;5047958;28;19940;-75
2022/03/29 00:32:58;;;;;;;;;;;13.70;52.00;;;;;;5049184;28;19937;-76
2022/03/29 00:35:24;;;;;;;;;;;13.70;52.00;;;;;;5048365;28;20304;-75
2022/03/29 00:37:51;;;;;;;;;;;13.70;51.90;;;;;;5045024;28;20027;-76
2022/03/29 00:40:20;;;;;;;;;;;13.60;52.00;;;;;;5047944;28;19933;-75
2022/03/29 00:42:46;;;;;;;;;;;13.60;52.20;;;;;;5045952;28;20012;-76
2022/03/29 00:45:13;;;;;;;;;;;13.60;52.30;;;;;;5050279;28;19929;-75
2022/03/29 00:47:39;;;;;;;;;;;13.50;52.20;;;;;;5048561;28;19929;-75
2022/03/29 00:50:06;;;;;;;;;;;13.50;52.30;;;;;;5048649;28;19932;-76
2022/03/29 00:52:33;;;;;;;;;;;13.50;52.40;;;;;;5052221;28;19924;-75
2022/03/29 00:55:00;;;;;;;;;;;13.40;52.30;;;;;;5048898;28;20547;-75
2022/03/29 00:57:29;;;;;;;;;;;13.40;52.40;;;;;;5047252;28;19939;-75
2022/03/29 00:59:56;;;;;;;;;;;13.40;52.60;;;;;;5046390;28;20710;-75
2022/03/29 01:02:23;;;;;;;;;;;13.30;52.60;;;;;;5046744;28;19933;-76
2022/03/29 01:04:50;;;;;;;;;;;13.30;52.70;;;;;;5048609;28;19961;-76
2022/03/29 01:07:16;;;;;;;;;;;13.20;52.70;;;;;;5045349;28;20304;-75
2022/03/29 01:09:43;;;;;;;;;;;13.20;52.80;;;;;;5047248;28;20446;-75
2022/03/29 01:12:10;;;;;;;;;;;13.20;52.90;;;;;;5045844;28;19928;-75
2022/03/29 01:14:38;;;;;;;;;;;13.20;53.00;;;;;;5043679;28;19928;-76
2022/03/29 01:19:50;;;;;;;;;;;13.10;53.00;;;;;;5048869;28;20479;-75
2022/03/29 01:22:19;;;;;;;;;;;13.10;53.10;;;;;;5048339;28;19929;-76
2022/03/29 01:24:46;;;;;;;;;;;13.10;53.10;;;;;;5047482;28;19928;-74
2022/03/29 01:27:13;;;;;;;;;;;13.00;53.10;;;;;;5045297;28;19968;-75
2022/03/29 01:29:41;;;;;;;;;;;13.00;53.30;;;;;;5045639;28;19929;-75
2022/03/29 01:32:08;;;;;;;;;;;13.00;53.30;;;;;;5047663;28;19929;-75
2022/03/29 01:34:37;;;;;;;;;;;13.00;53.30;;;;;;5048716;28;19960;-75
2022/03/29 01:37:04;;;;;;;;;;;12.90;53.40;;;;;;5044263;28;19929;-74
2022/03/29 01:39:32;;;;;;;;;;;13.00;53.50;;;;;;5046804;28;19939;-75
2022/03/29 01:41:58;;;;;;;;;;;12.90;53.50;;;;;;5046628;28;20324;-75
2022/03/29 01:44:25;;;;;;;;;;;12.90;53.50;;;;;;5048661;28;19971;-75
2022/03/29 01:46:52;;;;;;;;;;;12.80;53.50;;;;;;5048061;28;19929;-75
2022/03/29 01:49:19;;;;;;;;;;;12.90;53.80;;;;;;5042593;28;19936;-76
2022/03/29 01:51:46;;;;;;;;;;;12.80;53.80;;;;;;5051161;28;19928;-75
2022/03/29 01:54:12;;;;;;;;;;;12.80;53.80;;;;;;5047787;28;19944;-76
2022/03/29 01:56:40;;;;;;;;;;;12.80;53.90;;;;;;5045741;28;19929;-75
2022/03/29 01:59:07;;;;;;;;;;;12.80;53.90;;;;;;5044640;28;19925;-75
2022/03/29 02:01:39;;;;;;;;;;;12.70;53.90;;;;;;5051870;28;19929;-76
2022/03/29 02:04:05;;;;;;;;;;;12.70;54.00;;;;;;5045234;28;20705;-75
2022/03/29 02:06:32;;;;;;;;;;;12.70;54.10;;;;;;5047783;28;19948;-75
2022/03/29 02:08:59;;;;;;;;;;;12.70;54.10;;;;;;5045225;28;20200;-75
2022/03/29 02:11:26;;;;;;;;;;;12.70;54.20;;;;;;5046053;28;19928;-76
2022/03/29 02:13:54;;;;;;;;;;;12.60;54.30;;;;;;5044608;28;19932;-75
2022/03/29 02:16:20;;;;;;;;;;;12.60;54.30;;;;;;5045245;28;19928;-75
2022/03/29 02:18:47;;;;;;;;;;;12.60;54.40;;;;;;5055306;28;19931;-75
2022/03/29 02:21:14;;;;;;;;;;;12.60;54.50;;;;;;5047748;28;19940;-75
2022/03/29 02:23:41;;;;;;;;;;;12.60;54.50;;;;;;5048300;28;19929;-75
2022/03/29 02:26:07;;;;;;;;;;;12.50;54.60;;;;;;5047341;28;19940;-75
2022/03/29 02:28:34;;;;;;;;;;;12.50;54.70;;;;;;5045874;28;19925;-75
2022/03/29 02:31:02;;;;;;;;;;;12.50;54.70;;;;;;5044227;28;20284;-75
2022/03/29 02:33:29;;;;;;;;;;;12.40;54.70;;;;;;5050140;28;19944;-75
2022/03/29 02:35:55;;;;;;;;;;;12.50;54.80;;;;;;5046994;28;19928;-75
2022/03/29 02:38:22;;;;;;;;;;;12.40;54.90;;;;;;5042739;28;19936;-75
2022/03/29 02:40:49;;;;;;;;;;;12.40;54.90;;;;;;5043984;28;20011;-75
2022/03/29 02:43:15;;;;;;;;;;;12.40;55.00;;;;;;5044114;28;20372;-75
2022/03/29 02:45:42;;;;;;;;;;;12.40;55.00;;;;;;5044586;28;19929;-75
2022/03/29 02:48:11;;;;;;;;;;;12.40;55.10;;;;;;5044471;28;19936;-75
2022/03/29 02:50:38;;;;;;;;;;;12.30;55.10;;;;;;5043903;28;20376;-75
2022/03/29 02:53:04;;;;;;;;;;;12.30;55.20;;;;;;5047118;28;19928;-75
2022/03/29 02:55:33;;;;;;;;;;;12.30;55.20;;;;;;5046462;28;19970;-75
2022/03/29 02:57:59;;;;;;;;;;;12.30;55.30;;;;;;5043172;28;19929;-75
2022/03/29 03:00:26;;;;;;;;;;;12.20;55.40;;;;;;5047773;28;19936;-75
2022/03/29 03:02:54;;;;;;;;;;;12.20;55.40;;;;;;5049567;28;19935;-75
2022/03/29 03:05:24;;;;;;;;;;;12.20;55.50;;;;;;5044255;28;20283;-75
2022/03/29 03:07:50;;;;;;;;;;;12.20;55.60;;;;;;5043718;28;19929;-76
2022/03/29 03:10:17;;;;;;;;;;;12.10;55.70;;;;;;5044372;28;19932;-75
2022/03/29 03:12:45;;;;;;;;;;;12.10;55.70;;;;;;5040433;28;19929;-75
2022/03/29 03:15:12;;;;;;;;;;;12.10;55.80;;;;;;5044159;28;19932;-75
2022/03/29 03:17:39;;;;;;;;;;;12.10;55.80;;;;;;5046279;28;19936;-75
2022/03/29 03:20:06;;;;;;;;;;;12.10;55.90;;;;;;5042857;28;19925;-75
2022/03/29 03:22:36;;;;;;;;;;;12.00;55.90;;;;;;5040750;28;19929;-75
2022/03/29 03:25:02;;;;;;;;;;;12.00;56.10;;;;;;5048931;28;19924;-75
2022/03/29 03:27:29;;;;;;;;;;;12.00;56.00;;;;;;5044044;28;20353;-75
2022/03/29 03:29:56;;;;;;;;;;;12.00;56.10;;;;;;5043862;28;20292;-75
2022/03/29 03:32:23;;;;;;;;;;;11.90;56.20;;;;;;5049827;28;19932;-75
2022/03/29 03:34:50;;;;;;;;;;;11.90;56.20;;;;;;5046578;28;19929;-75
2022/03/29 03:37:16;;;;;;;;;;;11.90;56.30;;;;;;5044311;28;19933;-75
2022/03/29 03:39:44;;;;;;;;;;;11.90;56.40;;;;;;5044619;28;19929;-75
2022/03/29 03:42:11;;;;;;;;;;;11.90;56.40;;;;;;5044108;28;19925;-75
2022/03/29 03:44:38;;;;;;;;;;;11.80;56.40;;;;;;5042867;28;19929;-75
2022/03/29 03:47:05;;;;;;;;;;;11.80;56.50;;;;;;5045582;28;19925;-75
2022/03/29 03:49:32;;;;;;;;;;;11.80;56.60;;;;;;5048526;28;20273;-75
2022/03/29 03:51:58;;;;;;;;;;;11.80;56.60;;;;;;5042942;28;19935;-75
2022/03/29 03:54:25;;;;;;;;;;;11.80;56.70;;;;;;5049732;28;20393;-76
2022/03/29 03:56:53;;;;;;;;;;;11.80;56.70;;;;;;5051995;28;19933;-74
2022/03/29 03:59:19;;;;;;;;;;;11.70;56.80;;;;;;5048718;28;20365;-75
2022/03/29 04:01:46;;;;;;;;;;;11.70;56.80;;;;;;5051741;28;19929;-75
2022/03/29 04:04:13;;;;;;;;;;;11.70;57.00;;;;;;5050693;28;19929;-75
2022/03/29 04:06:39;;;;;;;;;;;11.70;57.10;;;;;;5049181;28;19936;-75
2022/03/29 04:09:06;;;;;;;;;;;11.60;57.10;;;;;;5049033;28;20519;-75
2022/03/29 04:11:33;;;;;;;;;;;11.70;57.20;;;;;;5047081;28;19935;-75
2022/03/29 04:14:01;;;;;;;;;;;11.60;57.10;;;;;;5043970;28;19929;-75
2022/03/29 04:16:28;;;;;;;;;;;11.60;57.20;;;;;;5046423;28;19933;-75
2022/03/29 04:18:55;;;;;;;;;;;11.60;57.30;;;;;;5046817;28;19935;-76
2022/03/29 04:21:21;;;;;;;;;;;11.50;57.40;;;;;;5045378;28;19950;-75
2022/03/29 04:23:48;;;;;;;;;;;11.50;57.50;;;;;;5042235;28;19928;-75
2022/03/29 04:26:14;;;;;;;;;;;11.60;57.60;;;;;;5044805;28;19935;-75
2022/03/29 04:28:41;;;;;;;;;;;11.50;57.50;;;;;;5041162;28;19936;-75
2022/03/29 04:31:09;;;;;;;;;;;11.50;57.60;;;;;;5046488;28;20284;-76
2022/03/29 04:33:36;;;;;;;;;;;11.40;57.60;;;;;;5043803;28;20380;-75
2022/03/29 04:36:03;;;;;;;;;;;11.40;57.60;;;;;;5045057;28;20437;-75
2022/03/29 04:38:29;;;;;;;;;;;11.50;57.60;;;;;;5043524;28;19925;-75
2022/03/29 04:40:56;;;;;;;;;;;11.40;57.80;;;;;;5045094;28;19955;-75
2022/03/29 04:43:23;;;;;;;;;;;11.40;57.90;;;;;;5046557;28;19940;-75
2022/03/29 04:45:50;;;;;;;;;;;11.40;57.90;;;;;;5042546;28;20618;-75
2022/03/29 04:48:18;;;;;;;;;;;11.40;57.90;;;;;;5044236;28;19936;-75
2022/03/29 04:50:44;;;;;;;;;;;11.30;58.00;;;;;;5047910;28;19935;-75
2022/03/29 04:53:11;;;;;;;;;;;11.30;58.10;;;;;;5045989;28;19929;-75
2022/03/29 04:55:38;;;;;;;;;;;11.30;58.10;;;;;;5044586;28;19975;-75
2022/03/29 04:58:04;;;;;;;;;;;11.30;58.10;;;;;;5046697;28;19960;-75
2022/03/29 05:00:32;;;;;;;;;;;11.30;58.20;;;;;;5045007;28;20475;-75
2022/03/29 05:02:59;;;;;;;;;;;11.20;58.10;;;;;;5050115;28;19928;-75
2022/03/29 05:05:27;;;;;;;;;;;11.20;58.20;;;;;;5046007;28;19939;-74
2022/03/29 05:07:54;;;;;;;;;;;11.20;58.30;;;;;;5050314;28;19929;-75
2022/03/29 05:10:20;;;;;;;;;;;11.20;58.40;;;;;;5046345;28;20408;-75
2022/03/29 05:12:48;;;;;;;;;;;11.20;58.40;;;;;;5046606;28;19925;-75
2022/03/29 05:15:16;;;;;;;;;;;11.20;58.40;;;;;;5046115;28;20401;-75
2022/03/29 05:17:43;;;;;;;;;;;11.10;58.40;;;;;;5050362;28;19963;-76
2022/03/29 05:20:10;;;;;;;;;;;11.10;58.50;;;;;;5047091;28;20106;-74
2022/03/29 05:22:45;;;;;;;;;;;11.10;58.50;;;;;;5044895;28;20344;-75
2022/03/29 05:25:12;;;;;;;;;;;11.10;58.60;;;;;;5045973;28;20032;-75
2022/03/29 05:27:39;;;;;;;;;;;11.10;58.70;;;;;;5047133;28;19925;-75
2022/03/29 05:30:06;;;;;;;;;;;11.00;58.60;;;;;;5047549;28;20347;-74
2022/03/29 05:32:32;;;;;;;;;;;11.10;58.80;;;;;;5051146;28;19928;-74
2022/03/29 05:34:59;;;;;;;;;;;11.00;58.70;;;;;;5047223;28;19931;-75
2022/03/29 05:37:25;;;;;;;;;;;11.00;58.80;;;;;;5045449;28;19925;-75
2022/03/29 05:39:53;;;;;;;;;;;11.00;58.90;;;;;;5047425;28;19937;-75
2022/03/29 05:42:21;;;;;;;;;;;11.00;58.90;;;;;;5044250;28;19928;-76
2022/03/29 05:44:47;;;;;;;;;;;11.00;58.90;;;;;;5047089;28;19924;-75
2022/03/29 05:49:58;;;;;;;;;;;10.90;59.00;;;;;;5042035;28;20606;-76
2022/03/29 05:52:25;;;;;;;;;;;10.80;61.30;;;;;;5048685;28;19931;-76
2022/03/29 05:54:52;;;;;;;;;;;10.60;62.80;;;;;;5048809;28;19987;-77
2022/03/29 05:57:20;;;;;;;;;;;10.60;62.50;;;;;;5047643;28;19925;-76
2022/03/29 05:59:47;;;;;;;;;;;10.50;62.50;;;;;;5052305;28;20610;-77
2022/03/29 06:02:13;;;;;;;;;;;10.50;62.70;;;;;;5048384;28;19935;-77
2022/03/29 06:04:40;;;;;;;;;;;10.50;62.60;;;;;;5051676;28;19936;-76
2022/03/29 06:07:07;;;;;;;;;;;10.50;62.50;;;;;;5046940;28;19987;-77
2022/03/29 06:09:34;;;;;;;;;;;10.50;62.20;;;;;;5047024;28;20385;-76
2022/03/29 06:12:00;;;;;;;;;;;10.50;62.10;;;;;;5047089;28;19928;-77
2022/03/29 06:14:28;;;;;;;;;;;10.50;61.90;;;;;;5046674;28;19932;-77
2022/03/29 06:16:56;;;;;;;;;;;10.50;61.80;;;;;;5046012;28;19931;-76
2022/03/29 06:19:22;;;;;;;;;;;10.50;61.70;;;;;;5046315;28;20376;-76
2022/03/29 06:21:49;;;;;;;;;;;10.40;61.60;;;;;;5052159;28;19925;-76
2022/03/29 06:24:16;;;;;;;;;;;10.50;61.50;;;;;;5047229;28;19959;-76
2022/03/29 06:26:42;;;;;;;;;;;10.50;61.50;;;;;;5047197;28;19936;-76
2022/03/29 06:29:10;;;;;;;;;;;10.50;61.40;;;;;;5045750;28;20011;-76
2022/03/29 06:31:38;;;;;;;;;;;10.50;61.40;;;;;;5047813;28;19937;-77
2022/03/29 06:34:05;;;;;;;;;;;10.50;61.30;;;;;;5046984;28;19924;-77
2022/03/29 06:36:31;;;;;;;;;;;10.50;61.30;;;;;;5045564;28;20490;-76
2022/03/29 06:38:58;;;;;;;;;;;10.50;61.10;;;;;;5045465;28;19928;-77
2022/03/29 06:41:25;;;;;;;;;;;10.50;61.10;;;;;;5044313;28;20292;-77
2022/03/29 06:43:52;;;;;;;;;;;10.50;61.00;;;;;;5047403;28;19933;-76
2022/03/29 06:46:18;;;;;;;;;;;10.50;61.00;;;;;;5044817;28;19925;-76
2022/03/29 06:48:46;;;;;;;;;;;10.50;60.90;;;;;;5045664;28;19929;-76
2022/03/29 06:51:13;;;;;;;;;;;10.50;60.80;;;;;;5045785;28;19928;-76
2022/03/29 06:53:40;;;;;;;;;;;10.50;60.70;;;;;;5049770;28;20027;-76
2022/03/29 06:56:07;;;;;;;;;;;10.60;60.70;;;;;;5049918;28;19936;-77
2022/03/29 06:58:33;;;;;;;;;;;10.50;60.70;;;;;;5045365;28;19951;-76
2022/03/29 07:01:00;;;;;;;;;;;10.60;60.70;;;;;;5046816;28;20352;-76
2022/03/29 07:03:27;;;;;;;;;;;10.60;60.70;;;;;;5044708;28;20023;-77
2022/03/29 07:05:55;;;;;;;;;;;10.60;60.60;;;;;;5044667;28;20389;-77
2022/03/29 07:08:22;;;;;;;;;;;10.50;60.50;;;;;;5049264;28;19933;-76
2022/03/29 07:13:34;;;;;;;;;;;10.60;60.50;;;;;;5051603;28;19927;-77
2022/03/29 07:16:01;;;;;;;;;;;10.60;60.40;;;;;;5050127;28;19936;-74
2022/03/29 07:18:27;;;;;;;;;;;10.60;60.40;;;;;;5047761;28;19951;-75
2022/03/29 07:20:55;;;;;;;;;;;10.60;60.30;;;;;;5048341;28;19933;-75
2022/03/29 07:23:22;;;;;;;;;;;10.60;60.30;;;;;;5044164;28;19928;-75
2022/03/29 07:25:48;;;;;;;;;;;10.60;60.20;;;;;;5044223;28;19929;-74
2022/03/29 07:28:15;;;;;;;;;;;10.60;60.10;;;;;;5042323;28;19929;-75
2022/03/29 07:30:43;;;;;;;;;;;10.60;60.10;;;;;;5050286;28;20403;-75
2022/03/29 07:33:10;;;;;;;;;;;10.70;60.10;;;;;;5048309;28;19935;-74
2022/03/29 07:35:37;;;;;;;;;;;10.70;60.00;;;;;;5048514;28;19933;-75
2022/03/29 07:38:08;;;;;;;;;;;10.70;60.10;;;;;;5046707;28;19941;-74
2022/03/29 07:40:34;;;;;;;;;;;10.70;60.10;;;;;;5044540;28;19967;-74
2022/03/29 07:43:01;;;;;;;;;;;10.70;60.30;;;;;;5042287;28;20019;-75
2022/03/29 07:45:28;;;;;;;;;;;10.70;60.30;;;;;;5042314;28;19935;-75
2022/03/29 07:47:56;;;;;;;;;;;10.80;60.30;;;;;;5053282;28;19928;-74
2022/03/29 07:50:26;;;;;;;;;;;10.80;60.10;;;;;;5050621;28;19936;-75
2022/03/29 07:52:54;;;;;;;;;;;10.80;60.00;;;;;;5049898;28;19928;-74
2022/03/29 07:55:22;;;;;;;;;;;10.70;60.00;;;;;;5052735;28;20445;-74
2022/03/29 07:57:48;;;;;;;;;;;10.80;60.10;;;;;;5048309;28;19948;-75
2022/03/29 08:00:33;;;;;;;;;;;10.90;60.60;;;;;;5047049;28;19933;-74
2022/03/29 08:03:01;;;;;;;;;;;11.00;61.70;;;;;;5044756;28;19948;-74
2022/03/29 08:05:28;;;;;;;;;;;11.20;61.60;;;;;;5041770;28;19967;-73
2022/03/29 08:07:57;;;;;;;;;;;11.30;61.20;;;;;;5044304;28;20316;-74
2022/03/29 08:10:25;;;;;;;;;;;11.40;60.80;;;;;;5038658;28;19960;-75
2022/03/29 08:12:52;;;;;;;;;;;11.40;60.30;;;;;;5040973;28;20404;-74
2022/03/29 08:15:18;;;;;;;;;;;11.50;59.90;;;;;;5045355;28;19928;-74
2022/03/29 08:17:45;;;;;;;;;;;11.60;59.70;;;;;;5046532;28;19932;-74
2022/03/29 08:20:12;;;;;;;;;;;11.70;59.40;;;;;;5049163;28;19933;-75
2022/03/29 08:22:44;;;;;;;;;;;11.80;59.20;;;;;;5047524;28;19929;-75
2022/03/29 08:25:11;;;;;;;;;;;11.90;59.00;;;;;;5047585;28;20023;-74
2022/03/29 08:27:39;;;;;;;;;;;12.00;58.90;;;;;;5046506;28;19929;-74
2022/03/29 08:30:06;;;;;;;;;;;12.00;58.80;;;;;;5048907;28;19968;-74
2022/03/29 08:32:35;;;;;;;;;;;12.10;58.60;;;;;;5051421;28;19928;-74
2022/03/29 08:35:01;;;;;;;;;;;12.20;58.50;;;;;;5049607;28;19936;-74
2022/03/29 08:37:28;;;;;;;;;;;12.20;58.40;;;;;;5046695;28;19929;-75
2022/03/29 08:39:55;;;;;;;;;;;12.20;58.30;;;;;;5045561;28;19933;-73
2022/03/29 08:42:23;;;;;;;;;;;12.30;58.30;;;;;;5049758;28;19940;-75
2022/03/29 08:44:51;;;;;;;;;;;12.30;58.10;;;;;;5047529;28;20040;-75
2022/03/29 08:47:17;;;;;;;;;;;12.40;58.10;;;;;;5048553;28;20028;-75
2022/03/29 08:49:45;;;;;;;;;;;12.40;58.00;;;;;;5047108;28;19929;-74
2022/03/29 08:52:12;;;;;;;;;;;12.50;58.00;;;;;;5049511;28;19929;-74
2022/03/29 08:54:38;;;;;;;;;;;12.50;58.00;;;;;;5048475;28;19928;-74
2022/03/29 08:57:05;;;;;;;;;;;12.50;57.80;;;;;;5051152;28;19933;-74
2022/03/29 08:59:31;;;;;;;;;;;12.50;57.70;;;;;;5048227;28;19936;-75
2022/03/29 09:02:08;;;;;;;;;;;12.60;57.70;;;;;;5044359;28;20268;-76
2022/03/29 09:04:35;;;;;;;;;;;12.60;57.70;;;;;;5048914;28;20652;-75
2022/03/29 09:07:02;;;;;;;;;;;12.70;57.70;;;;;;5045471;28;20573;-74
2022/03/29 09:09:29;;;;;;;;;;;12.60;57.50;;;;;;5043724;28;19964;-74
2022/03/29 09:11:56;;;;;;;;;;;12.70;57.50;;;;;;5044824;28;20421;-74
2022/03/29 09:14:23;;;;;;;;;;;12.70;57.50;;;;;;5043006;28;19929;-74
2022/03/29 09:16:51;;;;;;;;;;;12.80;57.50;;;;;;5047857;28;20224;-75
2022/03/29 09:19:21;;;;;;;;;;;12.80;57.50;;;;;;5047184;28;19928;-75
2022/03/29 09:21:48;;;;;;;;;;;12.80;57.50;;;;;;5046939;28;20415;-74
2022/03/29 09:24:16;;;;;;;;;;;12.90;57.40;;;;;;5049317;28;20384;-75
2022/03/29 09:26:43;;;;;;;;;;;12.90;57.40;;;;;;5046672;28;20088;-74
2022/03/29 09:29:14;;;;;;;;;;;13.00;57.40;;;;;;5046880;28;19948;-75
2022/03/29 09:31:41;;;;;;;;;;;13.00;57.30;;;;;;5045769;28;20721;-74
2022/03/29 09:34:11;;;;;;;;;;;13.00;57.20;;;;;;5052806;28;19929;-74
2022/03/29 09:36:43;;;;;;;;;;;13.00;57.20;;;;;;5047586;28;19928;-75
2022/03/29 09:39:10;;;;;;;;;;;13.10;57.10;;;;;;5046176;28;20046;-74
2022/03/29 09:41:40;;;;;;;;;;;13.10;57.10;;;;;;5044878;28;19936;-75
2022/03/29 09:44:08;;;;;;;;;;;13.20;57.00;;;;;;5046293;28;19928;-74
2022/03/29 09:46:49;;;;;;;;;;;13.20;57.20;;;;;;5052019;28;20427;-74
2022/03/29 09:49:16;;;;;;;;;;;13.20;57.00;;;;;;5048038;28;19929;-74
2022/03/29 09:51:44;;;;;;;;;;;13.30;57.00;;;;;;5049749;28;19928;-74
2022/03/29 09:54:10;;;;;;;;;;;13.30;56.90;;;;;;5057542;28;20317;-74
2022/03/29 09:56:37;;;;;;;;;;;13.30;56.80;;;;;;5052552;28;19935;-74
2022/03/29 09:59:04;;;;;;;;;;;13.40;56.90;;;;;;5049591;28;20597;-74
2022/03/29 10:01:31;;;;;;;;;;;13.40;56.80;;;;;;5051429;28;19934;-74
2022/03/29 10:04:01;;;;;;;;;;;13.40;56.80;;;;;;5052219;28;19929;-74
2022/03/29 10:06:28;;;;;;;;;;;13.50;56.80;;;;;;5049086;28;19982;-74
2022/03/29 10:11:43;;;;;;;;;;;13.50;56.70;;;;;;5050579;28;19948;-75
2022/03/29 10:14:12;;;;;;;;;;;13.50;56.70;;;;;;5050868;28;19932;-75
2022/03/29 10:16:39;;;;;;;;;;;13.60;56.70;;;;;;5052860;28;20285;-75
2022/03/29 10:19:05;;;;;;;;;;;13.60;56.70;;;;;;5051504;28;19933;-75
2022/03/29 10:21:32;;;;;;;;;;;13.60;56.60;;;;;;5044437;28;19951;-75
2022/03/29 10:24:01;;;;;;;;;;;13.60;56.60;;;;;;5050330;28;19933;-75
2022/03/29 10:26:28;;;;;;;;;;;13.70;56.60;;;;;;5048140;28;20639;-75
2022/03/29 10:28:54;;;;;;;;;;;13.70;56.60;;;;;;5045340;28;19936;-76
2022/03/29 10:31:28;;;;;;;;;;;13.80;57.10;;;;;;5043918;28;19929;-75
2022/03/29 10:34:16;;;;;;;;;;;13.70;56.50;;;;;;5044552;28;19976;-75
2022/03/29 10:37:01;;;;;;;;;;;13.80;56.50;;;;;;5040485;28;19932;-75
2022/03/29 10:39:41;;;;;;;;;;;13.80;56.40;;;;;;5043565;28;19929;-75
2022/03/29 10:42:23;;;;;;;;;;;13.80;56.40;;;;;;5041012;28;19944;-75
2022/03/29 10:45:13;;;;;;;;;;;13.90;56.40;;;;;;5044416;28;19928;-75
2022/03/29 10:47:41;;;;;;;;;;;13.80;56.30;;;;;;5027152;28;20568;-75
2022/03/29 10:50:10;;;;;;;;;;;13.90;56.30;;;;;;5043755;28;20802;-75
2022/03/29 10:52:40;;;;;;;;;;;13.90;56.30;;;;;;5045360;28;19928;-75
2022/03/29 10:55:21;;;;;;;;;;;13.90;56.30;;;;;;5042970;28;19932;-75
2022/03/29 10:58:20;;;;;;;;;;;14.00;56.30;;;;;;5043963;28;19950;-75
2022/03/29 11:00:47;;;;;;;;;;;14.00;56.20;;;;;;4961281;28;20568;-76
2022/03/29 11:03:15;;;;;;;;;;;14.00;56.20;;;;;;5028638;28;19935;-75
2022/03/29 11:05:59;;;;;;;;;;;14.10;56.20;;;;;;5039289;28;19939;-75
2022/03/29 11:08:30;;;;;;;;;;;14.10;56.10;;;;;;5049502;28;19932;-76
2022/03/29 11:10:58;;;;;;;;;;;14.10;56.10;;;;;;5038342;28;19940;-75
2022/03/29 11:13:26;;;;;;;;;;;14.10;56.10;;;;;;5042402;28;19928;-75
2022/03/29 11:15:53;;;;;;;;;;;14.10;56.00;;;;;;5040402;28;19929;-75
2022/03/29 11:18:35;;;;;;;;;;;14.20;56.10;;;;;;5047677;28;20051;-75
2022/03/29 11:21:03;;;;;;;;;;;14.20;56.00;;;;;;5038072;28;20408;-76
2022/03/29 11:23:31;;;;;;;;;;;14.30;56.00;;;;;;5041850;28;20019;-76
2022/03/29 11:26:04;;;;;;;;;;;14.30;55.80;;;;;;5042106;28;19952;-75
2022/03/29 11:28:31;;;;;;;;;;;14.30;55.70;;;;;;5040996;28;19929;-75
2022/03/29 11:30:58;;;;;;;;;;;14.40;55.60;;;;;;5045175;28;19936;-75
2022/03/29 11:33:30;;;;;;;;;;;14.30;55.40;;;;;;5045621;28;20352;-75
2022/03/29 11:35:57;;;;;;;;;;;14.50;55.40;;;;;;5044815;28;19933;-74
2022/03/29 11:38:23;;;;;;;;;;;14.50;55.40;;;;;;5044106;28;19928;-76
2022/03/29 11:40:50;;;;;;;;;;;14.80;54.60;;;;;;5044549;28;19929;-75
2022/03/29 11:43:22;;;;;;;;;;;14.90;54.30;;;;;;5045007;28;19933;-77
2022/03/29 11:45:49;;;;;;;;;;;14.90;54.20;;;;;;5043174;28;19933;-77
2022/03/29 11:48:18;;;;;;;;;;;15.00;54.20;;;;;;5044422;28;19928;-76
2022/03/29 11:50:46;;;;;;;;;;;15.00;54.10;;;;;;5040809;28;19929;-76
2022/03/29 11:53:17;;;;;;;;;;;15.00;54.10;;;;;;5049114;28;20025;-77
2022/03/29 11:55:44;;;;;;;;;;;15.00;53.90;;;;;;5048733;28;20473;-76
2022/03/29 11:58:22;;;;;;;;;;;15.00;53.70;;;;;;5050307;28;20347;-76
2022/03/29 12:00:48;;;;;;;;;;;15.10;53.60;;;;;;5049785;28;19990;-77
2022/03/29 12:03:26;;;;;;;;;;;15.10;53.50;;;;;;5055466;28;19937;-77
2022/03/29 12:06:01;;;;;;;;;;;15.20;53.30;;;;;;5050123;28;19933;-76
2022/03/29 12:08:42;;;;;;;;;;;15.20;53.10;;;;;;5057687;28;19928;-77
2022/03/29 12:11:08;;;;;;;;;;;15.30;53.00;;;;;;5045651;28;19928;-77
2022/03/29 12:13:36;;;;;;;;;;;15.30;52.80;;;;;;5050729;28;20679;-77
2022/03/29 12:16:15;;;;;;;;;;;15.40;52.50;;;;;;5049115;28;20334;-77
2022/03/29 12:18:45;;;;;;;;;;;15.40;52.10;;;;;;5053118;28;19929;-76
2022/03/29 12:21:13;;;;;;;;;;;15.50;51.90;;;;;;5051542;28;20392;-77
2022/03/29 12:23:41;;;;;;;;;;;15.50;51.70;;;;;;5048925;28;19928;-77
2022/03/29 12:26:08;;;;;;;;;;;15.60;51.30;;;;;;5052835;28;19933;-77
2022/03/29 12:28:35;;;;;;;;;;;15.60;50.90;;;;;;5048261;28;20695;-76
2022/03/29 12:31:03;;;;;;;;;;;15.60;51.00;;;;;;5053657;28;19935;-77
2022/03/29 12:33:33;;;;;;;;;;;15.60;51.10;;;;;;5052249;28;19932;-77
2022/03/29 12:36:02;;;;;;;;;;;15.70;51.20;;;;;;5050923;28;19929;-77
2022/03/29 12:38:39;;;;;;;;;;;15.70;51.40;;;;;;5049556;28;19933;-77
2022/03/29 12:41:05;;;;;;;;;;;15.80;51.40;;;;;;5047301;28;19928;-76
2022/03/29 12:43:33;;;;;;;;;;;15.80;51.50;;;;;;5048055;28;19929;-76
2022/03/29 12:46:00;;;;;;;;;;;15.90;51.60;;;;;;5050418;28;19982;-76
2022/03/29 12:48:28;;;;;;;;;;;15.90;51.70;;;;;;5054026;28;19936;-77
2022/03/29 12:50:55;;;;;;;;;;;15.90;51.50;;;;;;5050871;28;19950;-76
2022/03/29 12:53:21;;;;;;;;;;;16.00;51.50;;;;;;5049007;28;19925;-76
2022/03/29 12:55:55;;;;;;;;;;;16.00;51.60;;;;;;5049380;28;19976;-77
2022/03/29 12:58:29;;;;;;;;;;;16.00;51.70;;;;;;5052946;28;19929;-76
2022/03/29 13:00:56;;;;;;;;;;;16.10;51.70;;;;;;5047595;28;20027;-77
2022/03/29 13:03:23;;;;;;;;;;;16.10;51.20;;;;;;5050824;28;19936;-77
2022/03/29 13:05:51;;;;;;;;;;;16.10;51.10;;;;;;5054130;28;19936;-76
2022/03/29 13:08:19;;;;;;;;;;;16.10;51.10;;;;;;5049427;28;19936;-77
2022/03/29 13:10:46;;;;;;;;;;;16.10;51.10;;;;;;5055007;28;19937;-76
2022/03/29 13:13:14;;;;;;;;;;;16.10;50.90;;;;;;5052024;28;20033;-75
2022/03/29 13:15:46;;;;;;;;;;;16.20;51.10;;;;;;5048615;28;20004;-76
2022/03/29 13:18:34;;;;;;;;;;;16.20;51.10;;;;;;5051956;28;19929;-76
2022/03/29 13:21:09;;;;;;;;;;;16.20;50.90;;;;;;5039168;28;20479;-77
2022/03/29 13:23:37;;;;;;;;;;;16.20;50.70;;;;;;5046797;28;20294;-77
2022/03/29 13:26:04;;;;;;;;;;;16.20;50.60;;;;;;5046449;28;19936;-77
2022/03/29 13:28:31;;;;;;;;;;;16.20;50.50;;;;;;5044995;28;19929;-77
2022/03/29 13:30:58;;;;;;;;;;;16.30;50.40;;;;;;5048082;28;20312;-75
2022/03/29 13:33:24;;;;;;;;;;;16.30;50.30;;;;;;5049093;28;19932;-79
2022/03/29 13:35:51;;;;;;;;;;;16.50;47.80;;;;;;5054353;28;19933;-79
2022/03/29 13:38:19;;;;;;;;;;;16.60;47.10;;;;;;5054630;28;20373;-78
2022/03/29 13:40:46;;;;;;;;;;;16.60;48.00;;;;;;5049791;28;20567;-79
2022/03/29 13:43:13;;;;;;;;;;;16.60;48.30;;;;;;5055305;28;19952;-79
2022/03/29 13:45:40;;;;;;;;;;;16.50;48.50;;;;;;5056160;28;19935;-78
2022/03/29 13:48:06;;;;;;;;;;;16.50;48.60;;;;;;5053919;28;20383;-79
2022/03/29 13:50:34;;;;;;;;;;;16.50;48.70;;;;;;5049021;28;19936;-79
2022/03/29 13:53:00;;;;;;;;;;;16.40;48.80;;;;;;5054959;28;19939;-80
2022/03/29 13:55:28;;;;;;;;;;;16.40;48.90;;;;;;5052259;28;19940;-79
2022/03/29 13:57:55;;;;;;;;;;;16.40;49.00;;;;;;5057033;28;19939;-78
2022/03/29 14:00:21;;;;;;;;;;;16.30;48.60;;;;;;5058461;28;19940;-79
2022/03/29 14:02:48;;;;;;;;;;;16.40;48.30;;;;;;5057068;28;20384;-78
2022/03/29 14:05:15;;;;;;;;;;;16.40;48.00;;;;;;5057817;28;19975;-76
2022/03/29 14:07:41;;;;;;;;;;;16.40;48.30;;;;;;5045802;28;19936;-77
2022/03/29 14:10:08;;;;;;;;;;;16.40;48.50;;;;;;5047089;28;19951;-77
2022/03/29 14:12:36;;;;;;;;;;;16.40;48.00;;;;;;5043532;28;19936;-76
2022/03/29 14:15:03;;;;;;;;;;;16.40;47.90;;;;;;5049143;28;20012;-77
2022/03/29 14:17:31;;;;;;;;;;;16.40;47.90;;;;;;5053012;28;19940;-80
2022/03/29 14:19:59;;;;;;;;;;;16.50;48.10;;;;;;5054932;28;20606;-79
2022/03/29 14:22:25;;;;;;;;;;;16.50;48.20;;;;;;5053200;28;19928;-79
2022/03/29 14:24:52;;;;;;;;;;;16.50;48.10;;;;;;5057083;28;19939;-79
2022/03/29 14:27:19;;;;;;;;;;;16.50;48.30;;;;;;5052766;28;19928;-78
2022/03/29 14:29:46;;;;;;;;;;;16.50;48.30;;;;;;5054320;28;19929;-78
2022/03/29 14:32:13;;;;;;;;;;;16.50;48.30;;;;;;5051364;28;19929;-78